ROMMA est une association bénévole à but non lucratif. Votre soutien est indispensable : ADHERER à ROMMA ou FAIRE un DON

Granges-lès-Beaumont - (26, Drôme)

Drôme des Collines (155 m)   Longitude: 04°58'E   Latitude: 45°03'N Station partenaire n°123
 

Détail journalier du     <<     >>

Température Precipitation Humidité Pression Vent Dir Rafale Dir. rafale Ensol.
Heure (°C) (mm) (%) (hPa) (km/h) (km/h) (min)
01:00 6.708110046N13N0
02:00 6.408110047NNO16NNO0
03:00 6.308110047NNO16N0
04:00 5.308410047NNE15NE0
05:00 5.508410058NNE18NNE0
06:00 5.508410044N11N0
07:00 5.108310052NNO8NNE0
08:00 3.509010061---6NNE0
09:00 5.308510072---10NNO0
10:00 7.807610078NNE21NNE0
11:00 7.8073100716NNE29NNE10
12:00 8.7068100815N29NNE0
13:00 8.8066100715N27N20
14:00 9.8061100716NNE32NNE50
15:00 10.2060100715N27N50
16:00 9.6062100713NNE27NNE0
17:00 8.2070100710NE21NE10
18:00 5.807910083NNE10NNE0
19:00 4.908210081NNO11NNO0
20:00 3.908410081NNO10NNO0
21:00 2.9088100703NO0
22:00 2.7087100706NNO0
23:00 0.7091100705ONO0
minuit 0.6092100600---0

Graphique du 13-11-2019

 

Serveur OMMA